sensor_id;sensor_type;location;lat;lon;timestamp;temperature;humidity
9913;DHT22;41380;52.548;13.344;2022-09-30T00:00:06;7.50;99.90
9913;DHT22;41380;52.548;13.344;2022-09-30T00:02:34;7.50;99.90
9913;DHT22;41380;52.548;13.344;2022-09-30T00:05:01;7.50;99.90
9913;DHT22;41380;52.548;13.344;2022-09-30T00:07:30;7.40;99.90
9913;DHT22;41380;52.548;13.344;2022-09-30T00:09:57;7.40;99.90
9913;DHT22;41380;52.548;13.344;2022-09-30T00:12:24;7.30;99.90
9913;DHT22;41380;52.548;13.344;2022-09-30T00:14:52;7.40;99.90
9913;DHT22;41380;52.548;13.344;2022-09-30T00:17:19;7.40;99.90
9913;DHT22;41380;52.548;13.344;2022-09-30T00:19:46;7.40;99.90
9913;DHT22;41380;52.548;13.344;2022-09-30T00:22:14;7.40;99.90
9913;DHT22;41380;52.548;13.344;2022-09-30T00:24:42;7.30;99.90
9913;DHT22;41380;52.548;13.344;2022-09-30T00:27:11;7.30;99.90
9913;DHT22;41380;52.548;13.344;2022-09-30T00:29:42;7.20;99.90
9913;DHT22;41380;52.548;13.344;2022-09-30T00:32:09;7.10;99.90
9913;DHT22;41380;52.548;13.344;2022-09-30T00:34:36;7.10;99.90
9913;DHT22;41380;52.548;13.344;2022-09-30T00:37:03;7.00;99.90
9913;DHT22;41380;52.548;13.344;2022-09-30T00:39:30;7.00;99.90
9913;DHT22;41380;52.548;13.344;2022-09-30T00:42:00;6.80;99.90
9913;DHT22;41380;52.548;13.344;2022-09-30T00:44:55;6.80;99.90
9913;DHT22;41380;52.548;13.344;2022-09-30T00:47:41;6.80;99.90
9913;DHT22;41380;52.548;13.344;2022-09-30T00:53:01;6.70;99.90
9913;DHT22;41380;52.548;13.344;2022-09-30T00:55:50;6.60;99.90
9913;DHT22;41380;52.548;13.344;2022-09-30T00:58:25;6.60;99.90
9913;DHT22;41380;52.548;13.344;2022-09-30T01:00:54;6.50;99.90
9913;DHT22;41380;52.548;13.344;2022-09-30T01:03:22;6.50;99.90
9913;DHT22;41380;52.548;13.344;2022-09-30T01:05:50;6.50;99.90
9913;DHT22;41380;52.548;13.344;2022-09-30T01:08:19;6.50;99.90
9913;DHT22;41380;52.548;13.344;2022-09-30T01:10:46;6.50;99.90
9913;DHT22;41380;52.548;13.344;2022-09-30T01:13:14;6.50;99.90
9913;DHT22;41380;52.548;13.344;2022-09-30T01:15:54;6.50;99.90
9913;DHT22;41380;52.548;13.344;2022-09-30T01:18:27;6.50;99.90
9913;DHT22;41380;52.548;13.344;2022-09-30T01:21:31;6.30;99.90
9913;DHT22;41380;52.548;13.344;2022-09-30T01:24:21;6.40;99.90
9913;DHT22;41380;52.548;13.344;2022-09-30T01:27:04;6.30;99.90
9913;DHT22;41380;52.548;13.344;2022-09-30T01:30:00;6.30;99.90
9913;DHT22;41380;52.548;13.344;2022-09-30T01:32:43;6.40;99.90
9913;DHT22;41380;52.548;13.344;2022-09-30T01:35:22;6.40;99.90
9913;DHT22;41380;52.548;13.344;2022-09-30T01:38:00;6.50;99.90
9913;DHT22;41380;52.548;13.344;2022-09-30T01:40:39;6.50;99.90
9913;DHT22;41380;52.548;13.344;2022-09-30T01:43:12;6.60;99.90
9913;DHT22;41380;52.548;13.344;2022-09-30T01:45:42;6.60;99.90
9913;DHT22;41380;52.548;13.344;2022-09-30T01:48:17;6.70;99.90
9913;DHT22;41380;52.548;13.344;2022-09-30T01:50:51;6.70;99.90
9913;DHT22;41380;52.548;13.344;2022-09-30T01:53:24;6.70;99.90
9913;DHT22;41380;52.548;13.344;2022-09-30T01:55:57;6.80;99.90
9913;DHT22;41380;52.548;13.344;2022-09-30T01:58:32;6.80;99.90
9913;DHT22;41380;52.548;13.344;2022-09-30T02:01:04;6.70;99.90
9913;DHT22;41380;52.548;13.344;2022-09-30T02:03:36;6.70;99.90
9913;DHT22;41380;52.548;13.344;2022-09-30T02:06:07;6.70;99.90
9913;DHT22;41380;52.548;13.344;2022-09-30T02:08:39;6.70;99.90
9913;DHT22;41380;52.548;13.344;2022-09-30T02:11:11;6.70;99.90
9913;DHT22;41380;52.548;13.344;2022-09-30T02:13:42;6.70;99.90
9913;DHT22;41380;52.548;13.344;2022-09-30T02:16:15;6.70;99.90
9913;DHT22;41380;52.548;13.344;2022-09-30T02:18:48;6.70;99.90
9913;DHT22;41380;52.548;13.344;2022-09-30T02:21:19;6.70;99.90
9913;DHT22;41380;52.548;13.344;2022-09-30T02:23:51;6.60;99.90
9913;DHT22;41380;52.548;13.344;2022-09-30T02:26:21;6.50;99.90
9913;DHT22;41380;52.548;13.344;2022-09-30T02:28:52;6.50;99.90
9913;DHT22;41380;52.548;13.344;2022-09-30T02:31:23;6.40;99.90
9913;DHT22;41380;52.548;13.344;2022-09-30T02:33:55;6.40;99.90
9913;DHT22;41380;52.548;13.344;2022-09-30T02:36:28;6.30;99.90
9913;DHT22;41380;52.548;13.344;2022-09-30T02:39:02;6.40;99.90
9913;DHT22;41380;52.548;13.344;2022-09-30T02:41:33;6.20;99.90
9913;DHT22;41380;52.548;13.344;2022-09-30T02:44:04;6.20;99.90
9913;DHT22;41380;52.548;13.344;2022-09-30T02:46:40;6.10;99.90
9913;DHT22;41380;52.548;13.344;2022-09-30T02:49:17;6.10;99.90
9913;DHT22;41380;52.548;13.344;2022-09-30T02:51:57;6.10;99.90
9913;DHT22;41380;52.548;13.344;2022-09-30T02:54:32;6.10;99.90
9913;DHT22;41380;52.548;13.344;2022-09-30T02:57:04;6.00;99.90
9913;DHT22;41380;52.548;13.344;2022-09-30T02:59:35;6.00;99.90
9913;DHT22;41380;52.548;13.344;2022-09-30T03:02:02;5.90;99.90
9913;DHT22;41380;52.548;13.344;2022-09-30T03:04:33;5.90;99.90
9913;DHT22;41380;52.548;13.344;2022-09-30T03:07:00;6.00;99.90
9913;DHT22;41380;52.548;13.344;2022-09-30T03:09:28;5.90;99.90
9913;DHT22;41380;52.548;13.344;2022-09-30T03:12:10;5.80;99.90
9913;DHT22;41380;52.548;13.344;2022-09-30T03:14:47;5.80;99.90
9913;DHT22;41380;52.548;13.344;2022-09-30T03:17:34;5.80;99.90
9913;DHT22;41380;52.548;13.344;2022-09-30T03:20:28;5.80;99.90
9913;DHT22;41380;52.548;13.344;2022-09-30T03:25:55;5.80;99.90
9913;DHT22;41380;52.548;13.344;2022-09-30T03:28:29;5.90;99.90
9913;DHT22;41380;52.548;13.344;2022-09-30T03:31:04;5.90;99.90
9913;DHT22;41380;52.548;13.344;2022-09-30T03:33:39;5.90;99.90
9913;DHT22;41380;52.548;13.344;2022-09-30T03:36:14;5.90;99.90
9913;DHT22;41380;52.548;13.344;2022-09-30T03:38:47;5.80;99.90
9913;DHT22;41380;52.548;13.344;2022-09-30T03:41:19;5.80;99.90
9913;DHT22;41380;52.548;13.344;2022-09-30T03:43:51;5.80;99.90
9913;DHT22;41380;52.548;13.344;2022-09-30T03:46:27;5.80;99.90
9913;DHT22;41380;52.548;13.344;2022-09-30T03:48:58;5.70;99.90
9913;DHT22;41380;52.548;13.344;2022-09-30T03:51:28;5.70;99.90
9913;DHT22;41380;52.548;13.344;2022-09-30T03:53:57;5.70;99.90
9913;DHT22;41380;52.548;13.344;2022-09-30T03:56:25;5.70;99.90
9913;DHT22;41380;52.548;13.344;2022-09-30T03:58:54;5.70;99.90
9913;DHT22;41380;52.548;13.344;2022-09-30T04:01:22;5.70;99.90
9913;DHT22;41380;52.548;13.344;2022-09-30T04:03:49;5.70;99.90
9913;DHT22;41380;52.548;13.344;2022-09-30T04:06:18;5.80;99.90
9913;DHT22;41380;52.548;13.344;2022-09-30T04:08:47;5.80;99.90
9913;DHT22;41380;52.548;13.344;2022-09-30T04:11:15;5.80;99.90
9913;DHT22;41380;52.548;13.344;2022-09-30T04:13:42;5.90;99.90
9913;DHT22;41380;52.548;13.344;2022-09-30T04:16:09;5.80;99.90
9913;DHT22;41380;52.548;13.344;2022-09-30T04:18:37;5.90;99.90
9913;DHT22;41380;52.548;13.344;2022-09-30T04:21:05;5.90;99.90
9913;DHT22;41380;52.548;13.344;2022-09-30T04:23:34;5.90;99.90
9913;DHT22;41380;52.548;13.344;2022-09-30T04:26:03;5.90;99.90
9913;DHT22;41380;52.548;13.344;2022-09-30T04:28:31;5.80;99.90
9913;DHT22;41380;52.548;13.344;2022-09-30T04:30:58;5.80;99.90
9913;DHT22;41380;52.548;13.344;2022-09-30T04:33:25;5.70;99.90
9913;DHT22;41380;52.548;13.344;2022-09-30T04:35:53;5.70;99.90
9913;DHT22;41380;52.548;13.344;2022-09-30T04:38:21;5.70;99.90
9913;DHT22;41380;52.548;13.344;2022-09-30T04:40:49;5.70;99.90
9913;DHT22;41380;52.548;13.344;2022-09-30T04:43:21;5.70;99.90
9913;DHT22;41380;52.548;13.344;2022-09-30T04:45:49;5.80;99.90
9913;DHT22;41380;52.548;13.344;2022-09-30T04:48:17;5.80;99.90
9913;DHT22;41380;52.548;13.344;2022-09-30T04:50:47;5.90;99.90
9913;DHT22;41380;52.548;13.344;2022-09-30T04:53:16;6.00;99.90
9913;DHT22;41380;52.548;13.344;2022-09-30T04:55:44;6.00;99.90
9913;DHT22;41380;52.548;13.344;2022-09-30T04:58:11;5.90;99.90
9913;DHT22;41380;52.548;13.344;2022-09-30T05:00:41;6.00;99.90
9913;DHT22;41380;52.548;13.344;2022-09-30T05:03:07;6.00;99.90
9913;DHT22;41380;52.548;13.344;2022-09-30T05:05:35;6.00;99.90
9913;DHT22;41380;52.548;13.344;2022-09-30T05:08:03;6.00;99.90
9913;DHT22;41380;52.548;13.344;2022-09-30T05:10:30;5.90;99.90
9913;DHT22;41380;52.548;13.344;2022-09-30T05:12:57;5.90;99.90
9913;DHT22;41380;52.548;13.344;2022-09-30T05:15:25;5.90;99.90
9913;DHT22;41380;52.548;13.344;2022-09-30T05:18:00;6.00;99.90
9913;DHT22;41380;52.548;13.344;2022-09-30T05:20:27;6.00;99.90
9913;DHT22;41380;52.548;13.344;2022-09-30T05:22:55;6.10;99.90
9913;DHT22;41380;52.548;13.344;2022-09-30T05:25:22;6.10;99.90
9913;DHT22;41380;52.548;13.344;2022-09-30T05:27:50;6.10;99.90
9913;DHT22;41380;52.548;13.344;2022-09-30T05:30:17;6.10;99.90
9913;DHT22;41380;52.548;13.344;2022-09-30T05:32:44;6.10;99.90
9913;DHT22;41380;52.548;13.344;2022-09-30T05:35:13;6.10;99.90
9913;DHT22;41380;52.548;13.344;2022-09-30T05:37:39;6.20;99.90
9913;DHT22;41380;52.548;13.344;2022-09-30T05:40:08;6.30;99.90
9913;DHT22;41380;52.548;13.344;2022-09-30T05:42:35;6.30;99.90
9913;DHT22;41380;52.548;13.344;2022-09-30T05:45:03;6.40;99.90
9913;DHT22;41380;52.548;13.344;2022-09-30T05:47:31;6.40;99.90
9913;DHT22;41380;52.548;13.344;2022-09-30T05:49:58;6.50;99.90
9913;DHT22;41380;52.548;13.344;2022-09-30T05:52:26;6.50;99.90
9913;DHT22;41380;52.548;13.344;2022-09-30T05:54:53;6.60;99.90
9913;DHT22;41380;52.548;13.344;2022-09-30T05:57:23;6.70;99.90
9913;DHT22;41380;52.548;13.344;2022-09-30T05:59:50;6.70;99.90
9913;DHT22;41380;52.548;13.344;2022-09-30T06:02:17;6.80;99.90
9913;DHT22;41380;52.548;13.344;2022-09-30T06:04:44;6.90;99.90
9913;DHT22;41380;52.548;13.344;2022-09-30T06:07:11;6.90;99.90
9913;DHT22;41380;52.548;13.344;2022-09-30T06:09:40;7.00;99.90
9913;DHT22;41380;52.548;13.344;2022-09-30T06:12:08;7.10;99.90
9913;DHT22;41380;52.548;13.344;2022-09-30T06:14:36;7.20;99.90
9913;DHT22;41380;52.548;13.344;2022-09-30T06:17:03;7.20;99.90
9913;DHT22;41380;52.548;13.344;2022-09-30T06:19:31;7.30;99.90
9913;DHT22;41380;52.548;13.344;2022-09-30T06:22:01;7.40;99.90
9913;DHT22;41380;52.548;13.344;2022-09-30T06:24:28;7.50;99.90
9913;DHT22;41380;52.548;13.344;2022-09-30T06:26:56;7.50;99.90
9913;DHT22;41380;52.548;13.344;2022-09-30T06:29:23;7.60;99.90
9913;DHT22;41380;52.548;13.344;2022-09-30T06:31:54;7.70;99.90
9913;DHT22;41380;52.548;13.344;2022-09-30T06:34:21;7.80;99.90
9913;DHT22;41380;52.548;13.344;2022-09-30T06:36:48;7.90;99.90
9913;DHT22;41380;52.548;13.344;2022-09-30T06:39:16;8.00;99.90
9913;DHT22;41380;52.548;13.344;2022-09-30T06:41:43;8.20;99.90
9913;DHT22;41380;52.548;13.344;2022-09-30T06:44:11;8.20;99.90
9913;DHT22;41380;52.548;13.344;2022-09-30T06:46:41;8.30;99.90
9913;DHT22;41380;52.548;13.344;2022-09-30T06:49:09;8.30;99.90
9913;DHT22;41380;52.548;13.344;2022-09-30T06:51:36;8.50;99.90
9913;DHT22;41380;52.548;13.344;2022-09-30T06:54:03;8.60;99.90
9913;DHT22;41380;52.548;13.344;2022-09-30T06:56:31;8.60;99.90
9913;DHT22;41380;52.548;13.344;2022-09-30T06:58:58;8.70;99.90
9913;DHT22;41380;52.548;13.344;2022-09-30T07:01:28;8.80;99.90
9913;DHT22;41380;52.548;13.344;2022-09-30T07:03:55;8.90;99.90
9913;DHT22;41380;52.548;13.344;2022-09-30T07:06:23;9.00;99.90
9913;DHT22;41380;52.548;13.344;2022-09-30T07:08:50;9.10;99.90
9913;DHT22;41380;52.548;13.344;2022-09-30T07:11:18;9.20;99.70
9913;DHT22;41380;52.548;13.344;2022-09-30T07:13:46;9.20;99.60
9913;DHT22;41380;52.548;13.344;2022-09-30T07:16:15;9.30;99.40
9913;DHT22;41380;52.548;13.344;2022-09-30T07:18:44;9.40;99.30
9913;DHT22;41380;52.548;13.344;2022-09-30T07:21:13;9.50;99.10
9913;DHT22;41380;52.548;13.344;2022-09-30T07:23:41;9.60;99.00
9913;DHT22;41380;52.548;13.344;2022-09-30T07:26:13;9.80;98.90
9913;DHT22;41380;52.548;13.344;2022-09-30T07:28:40;9.80;99.10
9913;DHT22;41380;52.548;13.344;2022-09-30T07:31:10;9.80;98.40
9913;DHT22;41380;52.548;13.344;2022-09-30T07:33:38;10.00;97.70
9913;DHT22;41380;52.548;13.344;2022-09-30T07:36:07;10.10;97.80
9913;DHT22;41380;52.548;13.344;2022-09-30T07:38:36;10.10;97.70
9913;DHT22;41380;52.548;13.344;2022-09-30T07:41:06;10.20;97.70
9913;DHT22;41380;52.548;13.344;2022-09-30T07:43:34;10.30;97.60
9913;DHT22;41380;52.548;13.344;2022-09-30T07:46:05;10.40;97.30
9913;DHT22;41380;52.548;13.344;2022-09-30T07:48:34;10.50;97.30
9913;DHT22;41380;52.548;13.344;2022-09-30T07:51:11;10.60;97.00
9913;DHT22;41380;52.548;13.344;2022-09-30T07:53:39;10.70;96.90
9913;DHT22;41380;52.548;13.344;2022-09-30T07:56:07;10.80;96.80
9913;DHT22;41380;52.548;13.344;2022-09-30T07:58:34;11.00;96.80
9913;DHT22;41380;52.548;13.344;2022-09-30T08:01:04;11.10;96.90
9913;DHT22;41380;52.548;13.344;2022-09-30T08:03:32;11.20;96.70
9913;DHT22;41380;52.548;13.344;2022-09-30T08:06:04;11.30;96.40
9913;DHT22;41380;52.548;13.344;2022-09-30T08:08:34;11.40;96.40
9913;DHT22;41380;52.548;13.344;2022-09-30T08:11:03;11.50;96.40
9913;DHT22;41380;52.548;13.344;2022-09-30T08:13:31;11.60;96.30
9913;DHT22;41380;52.548;13.344;2022-09-30T08:15:58;11.70;95.90
9913;DHT22;41380;52.548;13.344;2022-09-30T08:18:27;11.90;96.00
9913;DHT22;41380;52.548;13.344;2022-09-30T08:20:54;11.90;95.60
9913;DHT22;41380;52.548;13.344;2022-09-30T08:23:21;12.10;95.70
9913;DHT22;41380;52.548;13.344;2022-09-30T08:25:49;12.30;95.60
9913;DHT22;41380;52.548;13.344;2022-09-30T08:28:16;12.30;95.20
9913;DHT22;41380;52.548;13.344;2022-09-30T08:30:43;12.40;95.00
9913;DHT22;41380;52.548;13.344;2022-09-30T08:33:10;12.50;94.60
9913;DHT22;41380;52.548;13.344;2022-09-30T08:35:38;12.60;94.40
9913;DHT22;41380;52.548;13.344;2022-09-30T08:38:06;12.70;94.30
9913;DHT22;41380;52.548;13.344;2022-09-30T08:40:40;12.80;94.30
9913;DHT22;41380;52.548;13.344;2022-09-30T08:43:23;13.00;93.90
9913;DHT22;41380;52.548;13.344;2022-09-30T08:46:00;13.00;93.90
9913;DHT22;41380;52.548;13.344;2022-09-30T08:48:40;13.20;93.80
9913;DHT22;41380;52.548;13.344;2022-09-30T08:51:28;13.30;93.60
9913;DHT22;41380;52.548;13.344;2022-09-30T08:53:57;13.40;93.60
9913;DHT22;41380;52.548;13.344;2022-09-30T08:56:29;13.50;93.40
9913;DHT22;41380;52.548;13.344;2022-09-30T08:59:03;13.60;93.20
9913;DHT22;41380;52.548;13.344;2022-09-30T09:01:33;13.70;92.90
9913;DHT22;41380;52.548;13.344;2022-09-30T09:04:03;13.80;92.60
9913;DHT22;41380;52.548;13.344;2022-09-30T09:06:35;13.90;92.40
9913;DHT22;41380;52.548;13.344;2022-09-30T09:12:07;14.10;92.20
9913;DHT22;41380;52.548;13.344;2022-09-30T09:14:49;14.20;92.10
9913;DHT22;41380;52.548;13.344;2022-09-30T09:17:29;14.30;92.00
9913;DHT22;41380;52.548;13.344;2022-09-30T09:20:02;14.40;91.70
9913;DHT22;41380;52.548;13.344;2022-09-30T09:22:31;14.50;91.50
9913;DHT22;41380;52.548;13.344;2022-09-30T09:24:59;14.60;91.50
9913;DHT22;41380;52.548;13.344;2022-09-30T09:27:40;14.80;91.30
9913;DHT22;41380;52.548;13.344;2022-09-30T09:30:11;14.80;91.00
9913;DHT22;41380;52.548;13.344;2022-09-30T09:32:39;15.00;90.50
9913;DHT22;41380;52.548;13.344;2022-09-30T09:35:14;15.10;90.50
9913;DHT22;41380;52.548;13.344;2022-09-30T09:37:47;15.20;90.40
9913;DHT22;41380;52.548;13.344;2022-09-30T09:40:41;15.30;90.50
9913;DHT22;41380;52.548;13.344;2022-09-30T09:43:27;15.40;90.30
9913;DHT22;41380;52.548;13.344;2022-09-30T09:46:08;15.50;89.40
9913;DHT22;41380;52.548;13.344;2022-09-30T09:48:38;15.60;89.70
9913;DHT22;41380;52.548;13.344;2022-09-30T09:51:14;15.80;89.70
9913;DHT22;41380;52.548;13.344;2022-09-30T09:53:50;15.80;88.50
9913;DHT22;41380;52.548;13.344;2022-09-30T09:56:19;15.90;87.80
9913;DHT22;41380;52.548;13.344;2022-09-30T09:59:10;15.90;86.30
9913;DHT22;41380;52.548;13.344;2022-09-30T10:01:41;16.00;86.00
9913;DHT22;41380;52.548;13.344;2022-09-30T10:04:12;16.00;85.80
9913;DHT22;41380;52.548;13.344;2022-09-30T10:06:50;16.10;86.70
9913;DHT22;41380;52.548;13.344;2022-09-30T10:09:26;16.20;85.10
9913;DHT22;41380;52.548;13.344;2022-09-30T10:12:16;16.20;85.60
9913;DHT22;41380;52.548;13.344;2022-09-30T10:14:48;16.30;85.20
9913;DHT22;41380;52.548;13.344;2022-09-30T10:17:21;16.40;84.40
9913;DHT22;41380;52.548;13.344;2022-09-30T10:19:53;16.50;84.40
9913;DHT22;41380;52.548;13.344;2022-09-30T10:22:26;16.50;84.00
9913;DHT22;41380;52.548;13.344;2022-09-30T10:25:21;16.60;84.20
9913;DHT22;41380;52.548;13.344;2022-09-30T10:27:53;16.70;84.10
9913;DHT22;41380;52.548;13.344;2022-09-30T10:30:39;16.80;83.20
9913;DHT22;41380;52.548;13.344;2022-09-30T10:33:19;16.80;83.30
9913;DHT22;41380;52.548;13.344;2022-09-30T10:35:52;16.90;83.50
9913;DHT22;41380;52.548;13.344;2022-09-30T10:38:21;16.90;82.70
9913;DHT22;41380;52.548;13.344;2022-09-30T10:40:50;16.90;82.70
9913;DHT22;41380;52.548;13.344;2022-09-30T10:43:31;17.00;82.70
9913;DHT22;41380;52.548;13.344;2022-09-30T10:46:00;17.10;82.70
9913;DHT22;41380;52.548;13.344;2022-09-30T10:48:33;17.20;81.80
9913;DHT22;41380;52.548;13.344;2022-09-30T10:51:00;17.30;79.90
9913;DHT22;41380;52.548;13.344;2022-09-30T10:53:30;17.40;80.30
9913;DHT22;41380;52.548;13.344;2022-09-30T10:55:58;17.40;80.50
9913;DHT22;41380;52.548;13.344;2022-09-30T10:58:46;17.50;80.50
9913;DHT22;41380;52.548;13.344;2022-09-30T11:01:23;17.50;80.10
9913;DHT22;41380;52.548;13.344;2022-09-30T11:03:57;17.60;79.80
9913;DHT22;41380;52.548;13.344;2022-09-30T11:06:28;17.70;79.00
9913;DHT22;41380;52.548;13.344;2022-09-30T11:09:02;17.70;79.00
9913;DHT22;41380;52.548;13.344;2022-09-30T11:11:36;17.70;78.90
9913;DHT22;41380;52.548;13.344;2022-09-30T11:14:17;17.80;79.20
9913;DHT22;41380;52.548;13.344;2022-09-30T11:16:51;17.80;78.20
9913;DHT22;41380;52.548;13.344;2022-09-30T11:19:29;17.90;77.80
9913;DHT22;41380;52.548;13.344;2022-09-30T11:22:02;17.80;77.60
9913;DHT22;41380;52.548;13.344;2022-09-30T11:24:35;17.80;78.20
9913;DHT22;41380;52.548;13.344;2022-09-30T11:27:10;17.90;78.10
9913;DHT22;41380;52.548;13.344;2022-09-30T11:29:49;18.00;78.30
9913;DHT22;41380;52.548;13.344;2022-09-30T11:32:36;18.10;78.20
9913;DHT22;41380;52.548;13.344;2022-09-30T11:35:27;18.20;77.60
9913;DHT22;41380;52.548;13.344;2022-09-30T11:38:09;18.30;76.70
9913;DHT22;41380;52.548;13.344;2022-09-30T11:40:46;18.30;76.40
9913;DHT22;41380;52.548;13.344;2022-09-30T11:43:24;18.40;76.30
9913;DHT22;41380;52.548;13.344;2022-09-30T11:46:15;18.40;76.20
9913;DHT22;41380;52.548;13.344;2022-09-30T11:49:00;18.50;75.90
9913;DHT22;41380;52.548;13.344;2022-09-30T11:51:38;18.20;75.90
9913;DHT22;41380;52.548;13.344;2022-09-30T11:54:20;18.40;76.60
9913;DHT22;41380;52.548;13.344;2022-09-30T11:56:55;18.40;77.00
9913;DHT22;41380;52.548;13.344;2022-09-30T11:59:27;18.30;76.10
9913;DHT22;41380;52.548;13.344;2022-09-30T12:01:58;18.20;75.30
9913;DHT22;41380;52.548;13.344;2022-09-30T12:04:30;18.30;75.10
9913;DHT22;41380;52.548;13.344;2022-09-30T12:07:03;18.60;75.70
9913;DHT22;41380;52.548;13.344;2022-09-30T12:09:35;18.90;75.30
9913;DHT22;41380;52.548;13.344;2022-09-30T12:12:06;19.20;74.50
9913;DHT22;41380;52.548;13.344;2022-09-30T12:14:39;19.40;71.70
9913;DHT22;41380;52.548;13.344;2022-09-30T12:17:15;19.60;71.60
9913;DHT22;41380;52.548;13.344;2022-09-30T12:19:47;19.50;71.40
9913;DHT22;41380;52.548;13.344;2022-09-30T12:22:21;19.60;71.30
9913;DHT22;41380;52.548;13.344;2022-09-30T12:24:52;19.60;69.20
9913;DHT22;41380;52.548;13.344;2022-09-30T12:27:23;19.60;68.40
9913;DHT22;41380;52.548;13.344;2022-09-30T12:29:57;19.60;68.80
9913;DHT22;41380;52.548;13.344;2022-09-30T12:36:20;19.50;68.80
9913;DHT22;41380;52.548;13.344;2022-09-30T12:42:12;19.60;69.90
9913;DHT22;41380;52.548;13.344;2022-09-30T12:45:03;19.70;69.40
9913;DHT22;41380;52.548;13.344;2022-09-30T12:47:38;19.70;68.20
9913;DHT22;41380;52.548;13.344;2022-09-30T12:50:13;19.70;67.70
9913;DHT22;41380;52.548;13.344;2022-09-30T12:52:41;19.70;68.10
9913;DHT22;41380;52.548;13.344;2022-09-30T12:55:21;19.60;69.10
9913;DHT22;41380;52.548;13.344;2022-09-30T12:57:51;19.60;69.50
9913;DHT22;41380;52.548;13.344;2022-09-30T13:00:20;19.60;69.00
9913;DHT22;41380;52.548;13.344;2022-09-30T13:02:53;19.70;69.80
9913;DHT22;41380;52.548;13.344;2022-09-30T13:05:49;19.80;69.00
9913;DHT22;41380;52.548;13.344;2022-09-30T13:08:41;20.00;68.60
9913;DHT22;41380;52.548;13.344;2022-09-30T13:11:30;20.10;67.40
9913;DHT22;41380;52.548;13.344;2022-09-30T13:14:13;20.00;66.80
9913;DHT22;41380;52.548;13.344;2022-09-30T13:17:00;19.60;68.10
9913;DHT22;41380;52.548;13.344;2022-09-30T13:19:32;19.40;69.50
9913;DHT22;41380;52.548;13.344;2022-09-30T13:25:17;19.50;69.50
9913;DHT22;41380;52.548;13.344;2022-09-30T13:27:47;19.50;69.70
9913;DHT22;41380;52.548;13.344;2022-09-30T13:30:38;19.70;69.10
9913;DHT22;41380;52.548;13.344;2022-09-30T13:33:28;19.80;69.50
9913;DHT22;41380;52.548;13.344;2022-09-30T13:35:58;19.90;69.00
9913;DHT22;41380;52.548;13.344;2022-09-30T13:38:37;19.80;68.80
9913;DHT22;41380;52.548;13.344;2022-09-30T13:41:13;19.50;69.70
9913;DHT22;41380;52.548;13.344;2022-09-30T13:43:49;19.00;70.10
9913;DHT22;41380;52.548;13.344;2022-09-30T13:46:23;18.60;72.40
9913;DHT22;41380;52.548;13.344;2022-09-30T13:48:57;18.50;72.10
9913;DHT22;41380;52.548;13.344;2022-09-30T13:51:28;18.40;72.00
9913;DHT22;41380;52.548;13.344;2022-09-30T13:54:01;18.40;72.00
9913;DHT22;41380;52.548;13.344;2022-09-30T13:56:33;18.50;72.20
9913;DHT22;41380;52.548;13.344;2022-09-30T13:59:25;18.60;71.80
9913;DHT22;41380;52.548;13.344;2022-09-30T14:05:19;18.60;71.20
9913;DHT22;41380;52.548;13.344;2022-09-30T14:08:02;18.50;71.60
9913;DHT22;41380;52.548;13.344;2022-09-30T14:10:42;18.50;70.60
9913;DHT22;41380;52.548;13.344;2022-09-30T14:13:24;18.50;70.80
9913;DHT22;41380;52.548;13.344;2022-09-30T14:16:19;18.60;70.40
9913;DHT22;41380;52.548;13.344;2022-09-30T14:19:17;18.90;69.70
9913;DHT22;41380;52.548;13.344;2022-09-30T14:21:49;19.20;69.00
9913;DHT22;41380;52.548;13.344;2022-09-30T14:24:22;19.40;68.30
9913;DHT22;41380;52.548;13.344;2022-09-30T14:30:01;19.60;66.60
9913;DHT22;41380;52.548;13.344;2022-09-30T14:32:35;19.60;65.80
9913;DHT22;41380;52.548;13.344;2022-09-30T14:35:05;19.70;66.10
9913;DHT22;41380;52.548;13.344;2022-09-30T14:37:37;19.60;65.90
9913;DHT22;41380;52.548;13.344;2022-09-30T14:40:08;19.60;65.90
9913;DHT22;41380;52.548;13.344;2022-09-30T14:42:39;19.50;66.00
9913;DHT22;41380;52.548;13.344;2022-09-30T14:45:08;19.50;65.80
9913;DHT22;41380;52.548;13.344;2022-09-30T14:47:38;19.40;66.30
9913;DHT22;41380;52.548;13.344;2022-09-30T14:50:09;19.20;66.00
9913;DHT22;41380;52.548;13.344;2022-09-30T14:52:41;19.10;65.90
9913;DHT22;41380;52.548;13.344;2022-09-30T14:55:25;18.90;67.00
9913;DHT22;41380;52.548;13.344;2022-09-30T14:57:53;18.60;68.10
9913;DHT22;41380;52.548;13.344;2022-09-30T15:00:28;18.40;69.10
9913;DHT22;41380;52.548;13.344;2022-09-30T15:02:57;18.10;69.30
9913;DHT22;41380;52.548;13.344;2022-09-30T15:05:25;18.10;69.80
9913;DHT22;41380;52.548;13.344;2022-09-30T15:07:52;18.00;70.00
9913;DHT22;41380;52.548;13.344;2022-09-30T15:10:22;18.00;71.20
9913;DHT22;41380;52.548;13.344;2022-09-30T15:12:55;18.00;71.70
9913;DHT22;41380;52.548;13.344;2022-09-30T15:15:26;17.80;71.70
9913;DHT22;41380;52.548;13.344;2022-09-30T15:18:04;17.60;70.40
9913;DHT22;41380;52.548;13.344;2022-09-30T15:20:41;17.40;71.20
9913;DHT22;41380;52.548;13.344;2022-09-30T15:23:15;17.20;72.20
9913;DHT22;41380;52.548;13.344;2022-09-30T15:25:43;17.10;72.20
9913;DHT22;41380;52.548;13.344;2022-09-30T15:28:11;16.90;72.50
9913;DHT22;41380;52.548;13.344;2022-09-30T15:30:40;16.80;73.00
9913;DHT22;41380;52.548;13.344;2022-09-30T15:33:15;16.60;73.50
9913;DHT22;41380;52.548;13.344;2022-09-30T15:35:43;16.60;74.00
9913;DHT22;41380;52.548;13.344;2022-09-30T15:38:17;16.60;74.30
9913;DHT22;41380;52.548;13.344;2022-09-30T15:40:49;16.60;74.40
9913;DHT22;41380;52.548;13.344;2022-09-30T15:43:33;16.50;74.80
9913;DHT22;41380;52.548;13.344;2022-09-30T15:49:09;16.30;75.10
9913;DHT22;41380;52.548;13.344;2022-09-30T15:51:55;16.20;75.50
9913;DHT22;41380;52.548;13.344;2022-09-30T15:54:41;16.10;75.40
9913;DHT22;41380;52.548;13.344;2022-09-30T15:57:44;16.10;75.40
9913;DHT22;41380;52.548;13.344;2022-09-30T16:00:32;16.00;75.80
9913;DHT22;41380;52.548;13.344;2022-09-30T16:03:17;15.90;76.10
9913;DHT22;41380;52.548;13.344;2022-09-30T16:05:46;15.80;76.60
9913;DHT22;41380;52.548;13.344;2022-09-30T16:08:19;15.70;76.80
9913;DHT22;41380;52.548;13.344;2022-09-30T16:10:49;15.60;77.20
9913;DHT22;41380;52.548;13.344;2022-09-30T16:13:19;15.40;77.00
9913;DHT22;41380;52.548;13.344;2022-09-30T16:15:46;15.30;77.20
9913;DHT22;41380;52.548;13.344;2022-09-30T16:18:17;15.10;78.10
9913;DHT22;41380;52.548;13.344;2022-09-30T16:20:56;14.90;78.10
9913;DHT22;41380;52.548;13.344;2022-09-30T16:23:30;14.80;78.70
9913;DHT22;41380;52.548;13.344;2022-09-30T16:26:18;14.70;79.20
9913;DHT22;41380;52.548;13.344;2022-09-30T16:28:48;14.50;79.80
9913;DHT22;41380;52.548;13.344;2022-09-30T16:31:16;14.40;80.40
9913;DHT22;41380;52.548;13.344;2022-09-30T16:33:44;14.30;80.80
9913;DHT22;41380;52.548;13.344;2022-09-30T16:36:11;14.20;81.10
9913;DHT22;41380;52.548;13.344;2022-09-30T16:38:41;14.10;81.50
9913;DHT22;41380;52.548;13.344;2022-09-30T16:41:10;14.00;82.30